sensor_id;sensor_type;location;lat;lon;timestamp;temperature;humidity
2050;DHT22;8478;49.208;8.806;2023-04-27T00:00:43;12.30;99.90
2050;DHT22;8478;49.208;8.806;2023-04-27T00:03:09;12.30;99.90
2050;DHT22;8478;49.208;8.806;2023-04-27T00:05:35;12.30;99.90
2050;DHT22;8478;49.208;8.806;2023-04-27T00:08:04;12.30;99.90
2050;DHT22;8478;49.208;8.806;2023-04-27T00:10:30;12.30;99.90
2050;DHT22;8478;49.208;8.806;2023-04-27T00:12:55;12.30;99.90
2050;DHT22;8478;49.208;8.806;2023-04-27T00:15:21;12.30;99.90
2050;DHT22;8478;49.208;8.806;2023-04-27T00:17:47;12.30;99.90
2050;DHT22;8478;49.208;8.806;2023-04-27T00:20:13;12.30;99.90
2050;DHT22;8478;49.208;8.806;2023-04-27T00:22:39;12.20;99.90
2050;DHT22;8478;49.208;8.806;2023-04-27T00:25:05;12.20;99.90
2050;DHT22;8478;49.208;8.806;2023-04-27T00:27:32;12.20;99.90
2050;DHT22;8478;49.208;8.806;2023-04-27T00:29:58;12.20;99.90
2050;DHT22;8478;49.208;8.806;2023-04-27T00:32:23;12.20;99.90
2050;DHT22;8478;49.208;8.806;2023-04-27T00:34:49;12.20;99.90
2050;DHT22;8478;49.208;8.806;2023-04-27T00:37:15;12.20;99.90
2050;DHT22;8478;49.208;8.806;2023-04-27T00:39:40;12.20;99.90
2050;DHT22;8478;49.208;8.806;2023-04-27T00:42:06;12.20;99.90
2050;DHT22;8478;49.208;8.806;2023-04-27T00:44:36;12.20;99.90
2050;DHT22;8478;49.208;8.806;2023-04-27T00:47:02;12.20;99.90
2050;DHT22;8478;49.208;8.806;2023-04-27T00:49:27;12.20;99.90
2050;DHT22;8478;49.208;8.806;2023-04-27T00:51:54;12.20;99.90
2050;DHT22;8478;49.208;8.806;2023-04-27T00:54:21;12.20;99.90
2050;DHT22;8478;49.208;8.806;2023-04-27T00:56:51;12.20;99.90
2050;DHT22;8478;49.208;8.806;2023-04-27T00:59:18;12.20;99.90
2050;DHT22;8478;49.208;8.806;2023-04-27T01:01:45;12.20;99.90
2050;DHT22;8478;49.208;8.806;2023-04-27T01:04:11;12.10;99.90
2050;DHT22;8478;49.208;8.806;2023-04-27T01:06:36;12.20;99.90
2050;DHT22;8478;49.208;8.806;2023-04-27T01:09:04;12.20;99.90
2050;DHT22;8478;49.208;8.806;2023-04-27T01:11:34;12.20;99.90
2050;DHT22;8478;49.208;8.806;2023-04-27T01:14:04;12.10;99.90
2050;DHT22;8478;49.208;8.806;2023-04-27T01:16:32;12.10;99.90
2050;DHT22;8478;49.208;8.806;2023-04-27T01:18:58;12.10;99.90
2050;DHT22;8478;49.208;8.806;2023-04-27T01:21:24;12.10;99.90
2050;DHT22;8478;49.208;8.806;2023-04-27T01:23:50;12.10;99.90
2050;DHT22;8478;49.208;8.806;2023-04-27T01:26:16;12.10;99.90
2050;DHT22;8478;49.208;8.806;2023-04-27T01:28:42;12.20;99.90
2050;DHT22;8478;49.208;8.806;2023-04-27T01:31:11;12.10;99.90
2050;DHT22;8478;49.208;8.806;2023-04-27T01:33:38;12.10;99.90
2050;DHT22;8478;49.208;8.806;2023-04-27T01:36:03;12.10;99.90
2050;DHT22;8478;49.208;8.806;2023-04-27T01:38:31;12.10;99.90
2050;DHT22;8478;49.208;8.806;2023-04-27T01:40:57;12.10;99.90
2050;DHT22;8478;49.208;8.806;2023-04-27T01:43:32;12.10;99.90
2050;DHT22;8478;49.208;8.806;2023-04-27T01:46:16;12.10;99.90
2050;DHT22;8478;49.208;8.806;2023-04-27T01:48:42;12.10;99.90
2050;DHT22;8478;49.208;8.806;2023-04-27T01:51:07;12.10;99.90
2050;DHT22;8478;49.208;8.806;2023-04-27T01:53:33;12.10;99.90
2050;DHT22;8478;49.208;8.806;2023-04-27T01:55:59;12.10;99.90
2050;DHT22;8478;49.208;8.806;2023-04-27T01:58:25;12.10;99.90
2050;DHT22;8478;49.208;8.806;2023-04-27T02:00:51;12.10;99.90
2050;DHT22;8478;49.208;8.806;2023-04-27T02:03:17;12.10;99.90
2050;DHT22;8478;49.208;8.806;2023-04-27T02:05:43;12.10;99.90
2050;DHT22;8478;49.208;8.806;2023-04-27T02:08:08;12.10;99.90
2050;DHT22;8478;49.208;8.806;2023-04-27T02:10:35;12.10;99.90
2050;DHT22;8478;49.208;8.806;2023-04-27T02:13:01;12.00;99.90
2050;DHT22;8478;49.208;8.806;2023-04-27T02:15:27;12.00;99.90
2050;DHT22;8478;49.208;8.806;2023-04-27T02:17:53;12.10;99.90
2050;DHT22;8478;49.208;8.806;2023-04-27T02:20:18;12.00;99.90
2050;DHT22;8478;49.208;8.806;2023-04-27T02:22:44;12.00;99.90
2050;DHT22;8478;49.208;8.806;2023-04-27T02:25:11;12.00;99.90
2050;DHT22;8478;49.208;8.806;2023-04-27T02:27:37;12.00;99.90
2050;DHT22;8478;49.208;8.806;2023-04-27T02:30:07;12.00;99.90
2050;DHT22;8478;49.208;8.806;2023-04-27T02:32:33;12.00;99.90
2050;DHT22;8478;49.208;8.806;2023-04-27T02:34:59;12.00;99.90
2050;DHT22;8478;49.208;8.806;2023-04-27T02:37:25;12.00;99.90
2050;DHT22;8478;49.208;8.806;2023-04-27T02:39:51;12.00;99.90
2050;DHT22;8478;49.208;8.806;2023-04-27T02:42:17;12.00;99.90
2050;DHT22;8478;49.208;8.806;2023-04-27T02:44:43;12.00;99.90
2050;DHT22;8478;49.208;8.806;2023-04-27T02:47:09;12.00;99.90
2050;DHT22;8478;49.208;8.806;2023-04-27T02:49:35;12.00;99.90
2050;DHT22;8478;49.208;8.806;2023-04-27T02:52:00;12.00;99.90
2050;DHT22;8478;49.208;8.806;2023-04-27T02:54:26;12.00;99.90
2050;DHT22;8478;49.208;8.806;2023-04-27T02:56:51;12.00;99.90
2050;DHT22;8478;49.208;8.806;2023-04-27T02:59:17;12.00;99.90
2050;DHT22;8478;49.208;8.806;2023-04-27T03:01:43;12.00;99.90
2050;DHT22;8478;49.208;8.806;2023-04-27T03:04:08;11.90;99.90
2050;DHT22;8478;49.208;8.806;2023-04-27T03:06:35;12.00;99.90
2050;DHT22;8478;49.208;8.806;2023-04-27T03:09:00;12.00;99.90
2050;DHT22;8478;49.208;8.806;2023-04-27T03:11:29;12.00;99.90
2050;DHT22;8478;49.208;8.806;2023-04-27T03:13:55;12.00;99.90
2050;DHT22;8478;49.208;8.806;2023-04-27T03:16:21;12.00;99.90
2050;DHT22;8478;49.208;8.806;2023-04-27T03:18:46;11.90;99.90
2050;DHT22;8478;49.208;8.806;2023-04-27T03:21:12;11.90;99.90
2050;DHT22;8478;49.208;8.806;2023-04-27T03:23:39;12.00;99.90
2050;DHT22;8478;49.208;8.806;2023-04-27T03:26:09;11.90;99.90
2050;DHT22;8478;49.208;8.806;2023-04-27T03:28:35;12.00;99.90
2050;DHT22;8478;49.208;8.806;2023-04-27T03:31:08;12.00;99.90
2050;DHT22;8478;49.208;8.806;2023-04-27T03:33:34;11.90;99.90
2050;DHT22;8478;49.208;8.806;2023-04-27T03:36:01;11.90;99.90
2050;DHT22;8478;49.208;8.806;2023-04-27T03:38:29;11.90;99.90
2050;DHT22;8478;49.208;8.806;2023-04-27T03:40:55;11.90;99.90
2050;DHT22;8478;49.208;8.806;2023-04-27T03:43:22;12.00;99.90
2050;DHT22;8478;49.208;8.806;2023-04-27T03:45:48;12.00;99.90
2050;DHT22;8478;49.208;8.806;2023-04-27T03:48:14;12.00;99.90
2050;DHT22;8478;49.208;8.806;2023-04-27T03:50:40;11.90;99.90
2050;DHT22;8478;49.208;8.806;2023-04-27T03:53:06;11.90;99.90
2050;DHT22;8478;49.208;8.806;2023-04-27T03:55:32;11.90;99.90
2050;DHT22;8478;49.208;8.806;2023-04-27T03:57:58;11.90;99.90
2050;DHT22;8478;49.208;8.806;2023-04-27T04:00:23;11.90;99.90
2050;DHT22;8478;49.208;8.806;2023-04-27T04:02:49;11.90;99.90
2050;DHT22;8478;49.208;8.806;2023-04-27T04:05:17;11.90;99.90
2050;DHT22;8478;49.208;8.806;2023-04-27T04:07:42;11.90;99.90
2050;DHT22;8478;49.208;8.806;2023-04-27T04:10:09;11.90;99.90
2050;DHT22;8478;49.208;8.806;2023-04-27T04:12:35;11.90;99.90
2050;DHT22;8478;49.208;8.806;2023-04-27T04:15:05;11.90;99.90
2050;DHT22;8478;49.208;8.806;2023-04-27T04:17:32;11.90;99.90
2050;DHT22;8478;49.208;8.806;2023-04-27T04:19:58;11.90;99.90
2050;DHT22;8478;49.208;8.806;2023-04-27T04:22:25;11.90;99.90
2050;DHT22;8478;49.208;8.806;2023-04-27T04:24:50;11.90;99.90
2050;DHT22;8478;49.208;8.806;2023-04-27T04:27:16;11.90;99.90
2050;DHT22;8478;49.208;8.806;2023-04-27T04:29:42;11.90;99.90
2050;DHT22;8478;49.208;8.806;2023-04-27T04:32:08;11.90;99.90
2050;DHT22;8478;49.208;8.806;2023-04-27T04:34:34;11.90;99.90
2050;DHT22;8478;49.208;8.806;2023-04-27T04:37:01;11.90;99.90
2050;DHT22;8478;49.208;8.806;2023-04-27T04:39:30;11.90;99.90
2050;DHT22;8478;49.208;8.806;2023-04-27T04:41:56;11.90;99.90
2050;DHT22;8478;49.208;8.806;2023-04-27T04:44:22;11.90;99.90
2050;DHT22;8478;49.208;8.806;2023-04-27T04:46:48;11.90;99.90
2050;DHT22;8478;49.208;8.806;2023-04-27T04:49:13;11.90;99.90
2050;DHT22;8478;49.208;8.806;2023-04-27T04:51:43;11.90;99.90
2050;DHT22;8478;49.208;8.806;2023-04-27T04:54:09;11.90;99.90
2050;DHT22;8478;49.208;8.806;2023-04-27T04:56:34;11.90;99.90
2050;DHT22;8478;49.208;8.806;2023-04-27T04:59:00;11.90;99.90
2050;DHT22;8478;49.208;8.806;2023-04-27T05:01:26;11.90;99.90
2050;DHT22;8478;49.208;8.806;2023-04-27T05:03:52;11.90;99.90
2050;DHT22;8478;49.208;8.806;2023-04-27T05:06:18;11.90;99.90
2050;DHT22;8478;49.208;8.806;2023-04-27T05:08:43;11.90;99.90
2050;DHT22;8478;49.208;8.806;2023-04-27T05:11:09;11.90;99.90
2050;DHT22;8478;49.208;8.806;2023-04-27T05:13:35;11.90;99.90
2050;DHT22;8478;49.208;8.806;2023-04-27T05:16:06;11.90;99.90
2050;DHT22;8478;49.208;8.806;2023-04-27T05:18:35;11.90;99.90
2050;DHT22;8478;49.208;8.806;2023-04-27T05:21:01;11.90;99.90
2050;DHT22;8478;49.208;8.806;2023-04-27T05:23:26;11.90;99.90
2050;DHT22;8478;49.208;8.806;2023-04-27T05:25:52;11.90;99.90
2050;DHT22;8478;49.208;8.806;2023-04-27T05:28:18;11.90;99.90
2050;DHT22;8478;49.208;8.806;2023-04-27T05:30:44;11.90;99.90
2050;DHT22;8478;49.208;8.806;2023-04-27T05:33:09;11.90;99.90
2050;DHT22;8478;49.208;8.806;2023-04-27T05:35:35;11.90;99.90
2050;DHT22;8478;49.208;8.806;2023-04-27T05:38:01;11.80;99.90
2050;DHT22;8478;49.208;8.806;2023-04-27T05:40:27;11.90;99.90
2050;DHT22;8478;49.208;8.806;2023-04-27T05:42:53;11.90;99.90
2050;DHT22;8478;49.208;8.806;2023-04-27T05:45:19;11.90;99.90
2050;DHT22;8478;49.208;8.806;2023-04-27T05:47:44;11.80;99.90
2050;DHT22;8478;49.208;8.806;2023-04-27T05:50:10;11.90;99.90
2050;DHT22;8478;49.208;8.806;2023-04-27T05:52:36;11.90;99.90
2050;DHT22;8478;49.208;8.806;2023-04-27T05:55:02;11.90;99.90
2050;DHT22;8478;49.208;8.806;2023-04-27T05:57:29;11.90;99.90
2050;DHT22;8478;49.208;8.806;2023-04-27T05:59:54;11.80;99.90
2050;DHT22;8478;49.208;8.806;2023-04-27T06:02:21;11.90;99.90
2050;DHT22;8478;49.208;8.806;2023-04-27T06:04:47;11.80;99.90
2050;DHT22;8478;49.208;8.806;2023-04-27T06:07:13;11.90;99.90
2050;DHT22;8478;49.208;8.806;2023-04-27T06:09:40;11.90;99.90
2050;DHT22;8478;49.208;8.806;2023-04-27T06:12:06;11.90;99.90
2050;DHT22;8478;49.208;8.806;2023-04-27T06:14:33;11.80;99.90
2050;DHT22;8478;49.208;8.806;2023-04-27T06:16:59;11.80;99.90
2050;DHT22;8478;49.208;8.806;2023-04-27T06:19:25;11.80;99.90
2050;DHT22;8478;49.208;8.806;2023-04-27T06:21:52;11.80;99.90
2050;DHT22;8478;49.208;8.806;2023-04-27T06:24:18;11.90;99.90
2050;DHT22;8478;49.208;8.806;2023-04-27T06:26:44;11.90;99.90
2050;DHT22;8478;49.208;8.806;2023-04-27T06:29:10;11.90;99.90
2050;DHT22;8478;49.208;8.806;2023-04-27T06:31:35;11.80;99.90
2050;DHT22;8478;49.208;8.806;2023-04-27T06:34:01;11.80;99.90
2050;DHT22;8478;49.208;8.806;2023-04-27T06:36:27;11.90;99.90
2050;DHT22;8478;49.208;8.806;2023-04-27T06:38:53;11.90;99.90
2050;DHT22;8478;49.208;8.806;2023-04-27T06:41:24;11.90;99.90
2050;DHT22;8478;49.208;8.806;2023-04-27T06:43:50;11.90;99.90
2050;DHT22;8478;49.208;8.806;2023-04-27T06:46:16;11.80;99.90
2050;DHT22;8478;49.208;8.806;2023-04-27T06:48:42;11.90;99.90
2050;DHT22;8478;49.208;8.806;2023-04-27T06:51:08;11.80;99.90
2050;DHT22;8478;49.208;8.806;2023-04-27T06:53:34;11.80;99.90
2050;DHT22;8478;49.208;8.806;2023-04-27T06:56:00;11.90;99.90
2050;DHT22;8478;49.208;8.806;2023-04-27T06:58:26;11.90;99.90
2050;DHT22;8478;49.208;8.806;2023-04-27T07:00:52;11.90;99.90
2050;DHT22;8478;49.208;8.806;2023-04-27T07:03:18;11.90;99.90
2050;DHT22;8478;49.208;8.806;2023-04-27T07:05:43;11.90;99.90
2050;DHT22;8478;49.208;8.806;2023-04-27T07:08:09;11.80;99.90
2050;DHT22;8478;49.208;8.806;2023-04-27T07:10:35;11.90;99.90
2050;DHT22;8478;49.208;8.806;2023-04-27T07:13:01;11.90;99.90
2050;DHT22;8478;49.208;8.806;2023-04-27T07:15:26;11.90;99.90
2050;DHT22;8478;49.208;8.806;2023-04-27T07:17:52;11.90;99.90
2050;DHT22;8478;49.208;8.806;2023-04-27T07:20:21;11.90;99.90
2050;DHT22;8478;49.208;8.806;2023-04-27T07:22:46;11.90;99.90
2050;DHT22;8478;49.208;8.806;2023-04-27T07:25:12;11.90;99.90
2050;DHT22;8478;49.208;8.806;2023-04-27T07:27:38;11.90;99.90
2050;DHT22;8478;49.208;8.806;2023-04-27T07:30:04;11.90;99.90
2050;DHT22;8478;49.208;8.806;2023-04-27T07:32:33;11.90;99.90
2050;DHT22;8478;49.208;8.806;2023-04-27T07:34:59;11.90;99.90
2050;DHT22;8478;49.208;8.806;2023-04-27T07:37:25;11.90;99.90
2050;DHT22;8478;49.208;8.806;2023-04-27T07:39:51;11.90;99.90
2050;DHT22;8478;49.208;8.806;2023-04-27T07:42:18;11.90;99.90
2050;DHT22;8478;49.208;8.806;2023-04-27T07:44:44;11.90;99.90
2050;DHT22;8478;49.208;8.806;2023-04-27T07:47:09;11.90;99.90
2050;DHT22;8478;49.208;8.806;2023-04-27T07:49:36;11.90;99.90
2050;DHT22;8478;49.208;8.806;2023-04-27T07:52:02;11.90;99.90
2050;DHT22;8478;49.208;8.806;2023-04-27T07:54:29;11.90;99.90
2050;DHT22;8478;49.208;8.806;2023-04-27T07:56:54;11.90;99.90
2050;DHT22;8478;49.208;8.806;2023-04-27T07:59:20;12.00;99.90
2050;DHT22;8478;49.208;8.806;2023-04-27T08:01:46;11.90;99.90
2050;DHT22;8478;49.208;8.806;2023-04-27T08:04:12;12.00;99.90
2050;DHT22;8478;49.208;8.806;2023-04-27T08:06:38;12.00;99.90
2050;DHT22;8478;49.208;8.806;2023-04-27T08:09:04;12.00;99.90
2050;DHT22;8478;49.208;8.806;2023-04-27T08:11:30;12.00;99.90
2050;DHT22;8478;49.208;8.806;2023-04-27T08:13:56;12.00;99.90
2050;DHT22;8478;49.208;8.806;2023-04-27T08:16:22;12.00;99.90
2050;DHT22;8478;49.208;8.806;2023-04-27T08:18:48;12.00;99.90
2050;DHT22;8478;49.208;8.806;2023-04-27T08:21:14;12.00;99.90
2050;DHT22;8478;49.208;8.806;2023-04-27T08:23:41;12.00;99.90
2050;DHT22;8478;49.208;8.806;2023-04-27T08:26:06;12.00;99.90
2050;DHT22;8478;49.208;8.806;2023-04-27T08:28:32;12.10;99.90
2050;DHT22;8478;49.208;8.806;2023-04-27T08:30:58;12.00;99.90
2050;DHT22;8478;49.208;8.806;2023-04-27T08:33:24;12.00;99.90
2050;DHT22;8478;49.208;8.806;2023-04-27T08:35:52;12.00;99.90
2050;DHT22;8478;49.208;8.806;2023-04-27T08:38:19;12.00;99.90
2050;DHT22;8478;49.208;8.806;2023-04-27T08:40:44;12.00;99.90
2050;DHT22;8478;49.208;8.806;2023-04-27T08:43:10;12.10;99.90
2050;DHT22;8478;49.208;8.806;2023-04-27T08:45:36;12.10;99.90
2050;DHT22;8478;49.208;8.806;2023-04-27T08:48:02;12.10;99.90
2050;DHT22;8478;49.208;8.806;2023-04-27T08:50:28;12.10;99.90
2050;DHT22;8478;49.208;8.806;2023-04-27T08:52:54;12.10;99.90
2050;DHT22;8478;49.208;8.806;2023-04-27T08:55:20;12.10;99.90
2050;DHT22;8478;49.208;8.806;2023-04-27T08:57:55;12.10;99.90
2050;DHT22;8478;49.208;8.806;2023-04-27T09:00:23;12.10;99.90
2050;DHT22;8478;49.208;8.806;2023-04-27T09:02:49;12.10;99.90
2050;DHT22;8478;49.208;8.806;2023-04-27T09:05:19;12.10;99.90
2050;DHT22;8478;49.208;8.806;2023-04-27T09:08:04;12.10;99.90
2050;DHT22;8478;49.208;8.806;2023-04-27T09:10:51;12.10;99.90
2050;DHT22;8478;49.208;8.806;2023-04-27T09:13:17;12.10;99.90
2050;DHT22;8478;49.208;8.806;2023-04-27T09:15:45;12.10;99.90
2050;DHT22;8478;49.208;8.806;2023-04-27T09:18:18;12.10;99.90
2050;DHT22;8478;49.208;8.806;2023-04-27T09:20:46;12.10;99.90
2050;DHT22;8478;49.208;8.806;2023-04-27T09:25:50;12.10;99.90
2050;DHT22;8478;49.208;8.806;2023-04-27T09:28:16;12.20;99.90
2050;DHT22;8478;49.208;8.806;2023-04-27T09:30:53;12.10;99.90
2050;DHT22;8478;49.208;8.806;2023-04-27T09:33:30;12.10;99.90
2050;DHT22;8478;49.208;8.806;2023-04-27T09:35:59;12.20;99.90
2050;DHT22;8478;49.208;8.806;2023-04-27T09:38:25;12.20;99.90
2050;DHT22;8478;49.208;8.806;2023-04-27T09:40:52;12.20;99.90
2050;DHT22;8478;49.208;8.806;2023-04-27T09:43:18;12.20;99.90
2050;DHT22;8478;49.208;8.806;2023-04-27T09:45:45;12.20;99.90
2050;DHT22;8478;49.208;8.806;2023-04-27T09:48:11;12.20;99.90
2050;DHT22;8478;49.208;8.806;2023-04-27T09:50:42;12.20;99.90
2050;DHT22;8478;49.208;8.806;2023-04-27T09:53:11;12.20;99.90
2050;DHT22;8478;49.208;8.806;2023-04-27T09:56:08;12.20;99.90
2050;DHT22;8478;49.208;8.806;2023-04-27T09:59:28;12.20;99.90
2050;DHT22;8478;49.208;8.806;2023-04-27T10:01:49;12.20;99.90
2050;DHT22;8478;49.208;8.806;2023-04-27T10:09:27;12.20;99.90
2050;DHT22;8478;49.208;8.806;2023-04-27T10:11:55;12.20;99.90
2050;DHT22;8478;49.208;8.806;2023-04-27T10:14:22;12.20;99.90
2050;DHT22;8478;49.208;8.806;2023-04-27T10:16:53;12.20;99.90
2050;DHT22;8478;49.208;8.806;2023-04-27T10:19:20;12.20;99.90
2050;DHT22;8478;49.208;8.806;2023-04-27T10:21:54;12.20;99.90
2050;DHT22;8478;49.208;8.806;2023-04-27T10:24:41;12.30;99.90
2050;DHT22;8478;49.208;8.806;2023-04-27T10:27:10;12.20;99.90
2050;DHT22;8478;49.208;8.806;2023-04-27T10:29:41;12.30;99.90
2050;DHT22;8478;49.208;8.806;2023-04-27T10:34:34;12.20;99.90
2050;DHT22;8478;49.208;8.806;2023-04-27T10:37:09;12.30;99.90
2050;DHT22;8478;49.208;8.806;2023-04-27T10:39:38;12.30;99.90
2050;DHT22;8478;49.208;8.806;2023-04-27T10:42:05;12.30;99.90
2050;DHT22;8478;49.208;8.806;2023-04-27T10:44:32;12.30;99.90
2050;DHT22;8478;49.208;8.806;2023-04-27T10:47:12;12.20;99.90
2050;DHT22;8478;49.208;8.806;2023-04-27T10:49:38;12.30;99.90
2050;DHT22;8478;49.208;8.806;2023-04-27T10:52:04;12.30;99.90
2050;DHT22;8478;49.208;8.806;2023-04-27T10:54:31;12.30;99.90
2050;DHT22;8478;49.208;8.806;2023-04-27T10:57:07;12.30;99.90
2050;DHT22;8478;49.208;8.806;2023-04-27T10:59:34;12.30;99.90
2050;DHT22;8478;49.208;8.806;2023-04-27T11:02:01;12.30;99.90
2050;DHT22;8478;49.208;8.806;2023-04-27T11:04:38;12.30;99.90
2050;DHT22;8478;49.208;8.806;2023-04-27T11:07:05;12.30;99.90
2050;DHT22;8478;49.208;8.806;2023-04-27T11:09:34;12.30;99.90
2050;DHT22;8478;49.208;8.806;2023-04-27T11:12:01;12.30;99.90
2050;DHT22;8478;49.208;8.806;2023-04-27T11:14:26;12.30;99.90
2050;DHT22;8478;49.208;8.806;2023-04-27T11:16:53;12.30;99.90
2050;DHT22;8478;49.208;8.806;2023-04-27T11:19:19;12.30;99.90
2050;DHT22;8478;49.208;8.806;2023-04-27T11:21:44;12.30;99.90
2050;DHT22;8478;49.208;8.806;2023-04-27T11:24:10;12.30;99.90
2050;DHT22;8478;49.208;8.806;2023-04-27T11:26:36;12.30;99.90
2050;DHT22;8478;49.208;8.806;2023-04-27T11:29:07;12.30;99.90
2050;DHT22;8478;49.208;8.806;2023-04-27T11:31:52;12.30;99.90
2050;DHT22;8478;49.208;8.806;2023-04-27T11:34:22;12.30;99.90
2050;DHT22;8478;49.208;8.806;2023-04-27T11:37:01;12.30;99.90
2050;DHT22;8478;49.208;8.806;2023-04-27T11:39:31;12.30;99.90
2050;DHT22;8478;49.208;8.806;2023-04-27T11:41:57;12.30;99.90
2050;DHT22;8478;49.208;8.806;2023-04-27T11:44:38;12.30;99.90
2050;DHT22;8478;49.208;8.806;2023-04-27T11:47:06;12.30;99.90
2050;DHT22;8478;49.208;8.806;2023-04-27T11:49:31;12.30;99.90
2050;DHT22;8478;49.208;8.806;2023-04-27T11:51:57;12.40;99.90
2050;DHT22;8478;49.208;8.806;2023-04-27T11:54:27;12.40;99.90
2050;DHT22;8478;49.208;8.806;2023-04-27T11:57:03;12.40;99.90
2050;DHT22;8478;49.208;8.806;2023-04-27T11:59:30;12.40;99.90
2050;DHT22;8478;49.208;8.806;2023-04-27T12:01:55;12.40;99.90
2050;DHT22;8478;49.208;8.806;2023-04-27T12:04:21;12.40;99.90
2050;DHT22;8478;49.208;8.806;2023-04-27T12:06:47;12.40;99.90
2050;DHT22;8478;49.208;8.806;2023-04-27T12:09:12;12.40;99.90
2050;DHT22;8478;49.208;8.806;2023-04-27T12:11:38;12.40;99.90
2050;DHT22;8478;49.208;8.806;2023-04-27T12:14:04;12.40;99.90
2050;DHT22;8478;49.208;8.806;2023-04-27T12:16:29;12.40;99.90
2050;DHT22;8478;49.208;8.806;2023-04-27T12:18:55;12.40;99.90
2050;DHT22;8478;49.208;8.806;2023-04-27T12:21:21;12.40;99.90
2050;DHT22;8478;49.208;8.806;2023-04-27T12:23:47;12.40;99.90
2050;DHT22;8478;49.208;8.806;2023-04-27T12:26:12;12.40;99.90
2050;DHT22;8478;49.208;8.806;2023-04-27T12:28:38;12.40;99.90
2050;DHT22;8478;49.208;8.806;2023-04-27T12:31:04;12.40;99.90
2050;DHT22;8478;49.208;8.806;2023-04-27T12:33:30;12.50;99.90
2050;DHT22;8478;49.208;8.806;2023-04-27T12:35:56;12.40;99.90
2050;DHT22;8478;49.208;8.806;2023-04-27T12:38:22;12.40;99.90
2050;DHT22;8478;49.208;8.806;2023-04-27T12:40:48;12.50;99.90
2050;DHT22;8478;49.208;8.806;2023-04-27T12:43:14;12.50;99.90
2050;DHT22;8478;49.208;8.806;2023-04-27T12:45:40;12.50;99.90
2050;DHT22;8478;49.208;8.806;2023-04-27T12:48:06;12.50;99.90
2050;DHT22;8478;49.208;8.806;2023-04-27T12:50:32;12.50;99.90
2050;DHT22;8478;49.208;8.806;2023-04-27T12:52:58;12.50;99.90
2050;DHT22;8478;49.208;8.806;2023-04-27T12:55:24;12.50;99.90
2050;DHT22;8478;49.208;8.806;2023-04-27T12:57:51;12.50;99.90
2050;DHT22;8478;49.208;8.806;2023-04-27T13:00:17;12.50;99.90
2050;DHT22;8478;49.208;8.806;2023-04-27T13:02:43;12.50;99.90
2050;DHT22;8478;49.208;8.806;2023-04-27T13:05:10;12.50;99.90
2050;DHT22;8478;49.208;8.806;2023-04-27T13:07:36;12.50;99.90
2050;DHT22;8478;49.208;8.806;2023-04-27T13:10:02;12.50;99.90
2050;DHT22;8478;49.208;8.806;2023-04-27T13:12:28;12.50;99.90
2050;DHT22;8478;49.208;8.806;2023-04-27T13:14:54;12.50;99.90
2050;DHT22;8478;49.208;8.806;2023-04-27T13:17:20;12.50;99.90
2050;DHT22;8478;49.208;8.806;2023-04-27T13:19:46;12.50;99.90
2050;DHT22;8478;49.208;8.806;2023-04-27T13:22:12;12.50;99.90
2050;DHT22;8478;49.208;8.806;2023-04-27T13:24:37;12.50;99.90
2050;DHT22;8478;49.208;8.806;2023-04-27T13:27:03;12.50;99.90
2050;DHT22;8478;49.208;8.806;2023-04-27T13:29:29;12.50;99.90
2050;DHT22;8478;49.208;8.806;2023-04-27T13:31:55;12.50;99.90
2050;DHT22;8478;49.208;8.806;2023-04-27T13:34:21;12.60;99.90
2050;DHT22;8478;49.208;8.806;2023-04-27T13:36:46;12.60;99.90
2050;DHT22;8478;49.208;8.806;2023-04-27T13:39:12;12.60;99.90
2050;DHT22;8478;49.208;8.806;2023-04-27T13:41:38;12.60;99.90
2050;DHT22;8478;49.208;8.806;2023-04-27T13:44:03;12.60;99.90
2050;DHT22;8478;49.208;8.806;2023-04-27T13:46:29;12.60;99.90
2050;DHT22;8478;49.208;8.806;2023-04-27T13:48:55;12.60;99.90
2050;DHT22;8478;49.208;8.806;2023-04-27T13:51:22;12.60;99.90
2050;DHT22;8478;49.208;8.806;2023-04-27T13:53:48;12.60;99.90
2050;DHT22;8478;49.208;8.806;2023-04-27T13:56:13;12.60;99.90
2050;DHT22;8478;49.208;8.806;2023-04-27T13:58:39;12.60;99.90
2050;DHT22;8478;49.208;8.806;2023-04-27T14:01:06;12.60;99.90
2050;DHT22;8478;49.208;8.806;2023-04-27T14:03:33;12.60;99.90
2050;DHT22;8478;49.208;8.806;2023-04-27T14:05:59;12.70;99.90
2050;DHT22;8478;49.208;8.806;2023-04-27T14:08:25;12.60;99.90
2050;DHT22;8478;49.208;8.806;2023-04-27T14:10:52;12.60;99.90
2050;DHT22;8478;49.208;8.806;2023-04-27T14:13:18;12.60;99.90
2050;DHT22;8478;49.208;8.806;2023-04-27T14:15:44;12.60;99.90
2050;DHT22;8478;49.208;8.806;2023-04-27T14:18:10;12.70;99.90
2050;DHT22;8478;49.208;8.806;2023-04-27T14:20:37;12.60;99.90
2050;DHT22;8478;49.208;8.806;2023-04-27T14:23:04;12.70;
2050;DHT22;8478;49.208;8.806;2023-04-27T14:25:31;12.70;99.90
2050;DHT22;8478;49.208;8.806;2023-04-27T14:28:06;12.70;99.90
2050;DHT22;8478;49.208;8.806;2023-04-27T14:30:33;12.70;99.90
2050;DHT22;8478;49.208;8.806;2023-04-27T14:32:59;12.70;99.90
2050;DHT22;8478;49.208;8.806;2023-04-27T14:35:25;12.70;99.90
2050;DHT22;8478;49.208;8.806;2023-04-27T14:37:52;12.70;99.90
2050;DHT22;8478;49.208;8.806;2023-04-27T14:40:18;12.70;99.90
2050;DHT22;8478;49.208;8.806;2023-04-27T14:42:44;12.70;99.90
2050;DHT22;8478;49.208;8.806;2023-04-27T14:45:11;12.70;99.90
2050;DHT22;8478;49.208;8.806;2023-04-27T14:47:36;12.70;99.90
2050;DHT22;8478;49.208;8.806;2023-04-27T14:50:03;12.70;99.90
2050;DHT22;8478;49.208;8.806;2023-04-27T14:52:29;12.70;99.90
2050;DHT22;8478;49.208;8.806;2023-04-27T14:54:54;12.70;99.90
2050;DHT22;8478;49.208;8.806;2023-04-27T14:57:20;12.70;99.90
2050;DHT22;8478;49.208;8.806;2023-04-27T14:59:46;12.70;99.90
2050;DHT22;8478;49.208;8.806;2023-04-27T15:02:12;12.70;99.90
2050;DHT22;8478;49.208;8.806;2023-04-27T15:04:38;12.70;99.90
2050;DHT22;8478;49.208;8.806;2023-04-27T15:07:04;12.70;99.90
2050;DHT22;8478;49.208;8.806;2023-04-27T15:09:32;12.70;99.90
2050;DHT22;8478;49.208;8.806;2023-04-27T15:11:58;12.80;99.90
2050;DHT22;8478;49.208;8.806;2023-04-27T15:14:24;12.80;99.90
2050;DHT22;8478;49.208;8.806;2023-04-27T15:16:49;12.70;99.90
2050;DHT22;8478;49.208;8.806;2023-04-27T15:19:15;12.80;99.90
2050;DHT22;8478;49.208;8.806;2023-04-27T15:21:41;12.80;99.90
2050;DHT22;8478;49.208;8.806;2023-04-27T15:24:06;12.80;99.90
2050;DHT22;8478;49.208;8.806;2023-04-27T15:26:32;12.80;99.90
2050;DHT22;8478;49.208;8.806;2023-04-27T15:28:58;12.80;99.90
2050;DHT22;8478;49.208;8.806;2023-04-27T15:31:24;12.80;99.90
2050;DHT22;8478;49.208;8.806;2023-04-27T15:33:50;12.80;99.90
2050;DHT22;8478;49.208;8.806;2023-04-27T15:36:18;12.80;99.90
2050;DHT22;8478;49.208;8.806;2023-04-27T15:38:43;12.80;99.90
2050;DHT22;8478;49.208;8.806;2023-04-27T15:41:09;12.80;99.90
2050;DHT22;8478;49.208;8.806;2023-04-27T15:43:35;12.80;99.90
2050;DHT22;8478;49.208;8.806;2023-04-27T15:46:04;12.80;99.90
2050;DHT22;8478;49.208;8.806;2023-04-27T15:48:30;12.80;99.90
2050;DHT22;8478;49.208;8.806;2023-04-27T15:50:56;12.80;99.90
2050;DHT22;8478;49.208;8.806;2023-04-27T15:53:22;12.80;99.90
2050;DHT22;8478;49.208;8.806;2023-04-27T15:55:47;12.80;99.90
2050;DHT22;8478;49.208;8.806;2023-04-27T15:58:14;12.80;99.90
2050;DHT22;8478;49.208;8.806;2023-04-27T16:00:40;12.80;99.90
2050;DHT22;8478;49.208;8.806;2023-04-27T16:03:07;12.80;99.90
2050;DHT22;8478;49.208;8.806;2023-04-27T16:05:35;12.90;99.90
2050;DHT22;8478;49.208;8.806;2023-04-27T16:08:01;12.90;99.90
2050;DHT22;8478;49.208;8.806;2023-04-27T16:10:26;12.90;99.90